Vel'Sk, Russia
Current Conditions -  °F | °C
As of 9:00 PM on Wednesday 22 Oct 2014 (Local Time) from ULWC Reporting Station
Clear Clear  
Wind Chill:   Ceiling: Unl
Heat Index: 10°   Visibility: 6mi
Dew Point:   Wind: 7mph
Humidity: 67%   Direction: 330°NNW
Pressure: 30.12"   Gusts: NA
Location:  61.08°N, 42.07°E
Report Text: ULWC 221800Z 33003MPS CAVOK M12/M17 Q1020 NOSIG RMK QFE755/1007SC040
Loading
Personal Weather Stations






























Interactive Weather Map
Tropical Storm Tracking
New forecast layout! Learn more

10-Day Weather Forecast

Advertisements
Track Severe Weather on mobile